createdAt,value
2019-02-23T00:08:24.688Z,6.70
2019-02-23T00:13:54.719Z,6.70
2019-02-23T00:16:35.116Z,6.70
2019-02-23T00:19:24.406Z,6.70
2019-02-23T00:21:58.355Z,6.60
2019-02-23T00:24:39.391Z,6.60
2019-02-23T00:27:20.184Z,6.50
2019-02-23T00:30:00.626Z,6.50
2019-02-23T00:32:41.563Z,6.40
2019-02-23T00:35:22.147Z,6.40
2019-02-23T00:38:02.550Z,6.40
2019-02-23T00:40:43.859Z,6.30
2019-02-23T00:43:24.459Z,6.30
2019-02-23T00:46:05.301Z,6.30
2019-02-23T00:48:45.652Z,6.30
2019-02-23T00:51:26.197Z,6.30
2019-02-23T00:54:06.983Z,6.30
2019-02-23T00:56:48.151Z,6.20
2019-02-23T00:59:28.851Z,6.30
2019-02-23T01:02:09.381Z,6.30
2019-02-23T01:04:50.154Z,6.20
2019-02-23T01:07:31.119Z,6.20
2019-02-23T01:10:11.803Z,6.20
2019-02-23T01:12:52.111Z,6.20
2019-02-23T01:15:32.816Z,6.20
2019-02-23T01:18:13.539Z,6.20
2019-02-23T01:23:41.003Z,6.10
2019-02-23T01:29:03.965Z,6.10
2019-02-23T01:37:21.319Z,6.00
2019-02-23T01:40:05.588Z,6.00
2019-02-23T01:45:42.244Z,5.90
2019-02-23T01:48:24.151Z,5.90
2019-02-23T01:59:25.184Z,6.00
2019-02-23T02:07:34.394Z,6.10
2019-02-23T02:18:36.536Z,6.10
2019-02-23T02:21:17.228Z,6.10
2019-02-23T02:23:57.807Z,6.10
2019-02-23T02:26:38.243Z,6.20
2019-02-23T02:29:18.938Z,6.20
2019-02-23T02:31:59.460Z,6.20
2019-02-23T02:34:40.027Z,6.20
2019-02-23T02:37:20.656Z,6.20
2019-02-23T02:40:01.379Z,6.20
2019-02-23T02:45:24.648Z,6.20
2019-02-23T02:48:05.474Z,6.20
2019-02-23T02:50:45.951Z,6.20
2019-02-23T02:53:26.876Z,6.10
2019-02-23T02:56:07.476Z,6.10
2019-02-23T02:58:47.846Z,6.10
2019-02-23T03:01:16.970Z,6.10
2019-02-23T03:03:45.802Z,6.10
2019-02-23T03:06:14.798Z,6.10
2019-02-23T03:08:43.403Z,6.00
2019-02-23T03:11:12.654Z,6.00
2019-02-23T03:13:41.553Z,5.90
2019-02-23T03:16:10.471Z,5.90
2019-02-23T03:18:39.090Z,5.80
2019-02-23T03:21:07.662Z,5.80
2019-02-23T03:23:36.558Z,5.80
2019-02-23T03:26:05.139Z,5.80
2019-02-23T03:28:33.710Z,5.70
2019-02-23T03:31:02.307Z,5.60
2019-02-23T03:33:30.893Z,5.60
2019-02-23T03:35:59.523Z,5.60
2019-02-23T03:38:28.159Z,5.60
2019-02-23T03:40:57.191Z,5.50
2019-02-23T03:43:26.382Z,5.50
2019-02-23T03:45:54.965Z,5.50
2019-02-23T03:48:23.904Z,5.50
2019-02-23T03:50:53.163Z,5.40
2019-02-23T03:53:22.054Z,5.30
2019-02-23T03:55:50.939Z,5.30
2019-02-23T03:58:19.831Z,5.30
2019-02-23T04:00:48.338Z,5.30
2019-02-23T04:03:17.730Z,5.30
2019-02-23T04:05:46.601Z,5.20
2019-02-23T04:08:15.479Z,5.20
2019-02-23T04:10:44.051Z,5.10
2019-02-23T04:13:12.978Z,5.10
2019-02-23T04:15:42.039Z,5.10
2019-02-23T04:18:11.156Z,5.00
2019-02-23T04:20:39.715Z,5.10
2019-02-23T04:23:08.653Z,5.10
2019-02-23T04:25:37.184Z,5.00
2019-02-23T04:28:06.128Z,5.00
2019-02-23T04:30:35.007Z,5.00
2019-02-23T04:33:03.574Z,5.00
2019-02-23T04:35:32.194Z,5.00
2019-02-23T04:38:01.283Z,5.00
2019-02-23T04:40:30.150Z,5.00
2019-02-23T04:42:58.718Z,4.90
2019-02-23T04:45:27.626Z,4.90
2019-02-23T04:47:56.662Z,4.90
2019-02-23T04:50:25.614Z,4.90
2019-02-23T04:52:54.511Z,4.80
2019-02-23T04:55:23.074Z,4.80
2019-02-23T04:57:52.000Z,4.80
2019-02-23T05:00:20.795Z,4.70
2019-02-23T05:02:49.656Z,4.70
2019-02-23T05:05:18.554Z,4.60
2019-02-23T05:07:47.767Z,4.60
2019-02-23T05:10:16.347Z,4.60
2019-02-23T05:12:45.247Z,4.50
2019-02-23T05:15:13.774Z,4.50
2019-02-23T05:17:42.371Z,4.40
2019-02-23T05:20:11.306Z,4.40
2019-02-23T05:22:40.401Z,4.30
2019-02-23T05:25:08.942Z,4.30
2019-02-23T05:27:37.518Z,4.20
2019-02-23T05:30:07.172Z,4.20
2019-02-23T05:32:35.715Z,4.20
2019-02-23T05:35:04.847Z,4.20
2019-02-23T05:37:33.402Z,4.10
2019-02-23T05:40:02.335Z,4.10
2019-02-23T05:42:30.866Z,4.10
2019-02-23T05:44:59.458Z,4.00
2019-02-23T05:47:28.030Z,4.00
2019-02-23T05:49:56.656Z,4.00
2019-02-23T05:52:25.204Z,4.00
2019-02-23T05:54:54.130Z,4.00
2019-02-23T05:57:23.303Z,4.00
2019-02-23T05:59:52.527Z,4.00
2019-02-23T06:02:21.042Z,3.90
2019-02-23T06:04:49.659Z,3.90
2019-02-23T06:07:18.311Z,3.90
2019-02-23T06:09:47.759Z,3.90
2019-02-23T06:12:16.346Z,3.80
2019-02-23T06:14:45.249Z,3.80
2019-02-23T06:17:13.827Z,3.80
2019-02-23T06:19:42.698Z,3.80
2019-02-23T06:22:12.016Z,3.70
2019-02-23T06:24:40.827Z,3.70
2019-02-23T06:27:09.374Z,3.70
2019-02-23T06:29:38.306Z,3.70
2019-02-23T06:32:07.185Z,3.70
2019-02-23T06:34:36.131Z,3.70
2019-02-23T06:37:04.726Z,3.70
2019-02-23T06:39:33.323Z,3.70
2019-02-23T06:42:02.558Z,3.70
2019-02-23T06:44:31.110Z,3.70
2019-02-23T06:46:59.675Z,3.70
2019-02-23T06:49:28.638Z,3.70
2019-02-23T06:52:04.253Z,3.70
2019-02-23T06:54:27.898Z,3.70
2019-02-23T06:56:56.813Z,3.70
2019-02-23T06:59:25.372Z,3.70
2019-02-23T07:01:56.509Z,3.70
2019-02-23T07:04:24.515Z,3.80
2019-02-23T07:06:53.407Z,3.80
2019-02-23T07:09:22.310Z,3.80
2019-02-23T07:11:51.182Z,3.80
2019-02-23T07:14:20.393Z,3.80
2019-02-23T07:16:48.935Z,3.80
2019-02-23T07:19:17.544Z,3.90
2019-02-23T07:21:46.102Z,3.90
2019-02-23T07:24:15.079Z,3.90
2019-02-23T07:26:44.066Z,3.90
2019-02-23T07:29:13.322Z,4.00
2019-02-23T07:31:42.211Z,4.00
2019-02-23T07:34:11.130Z,4.00
2019-02-23T07:36:39.691Z,4.10
2019-02-23T07:39:08.235Z,4.10
2019-02-23T07:41:37.244Z,4.20
2019-02-23T07:44:05.842Z,4.20
2019-02-23T07:46:34.531Z,4.20
2019-02-23T07:49:03.414Z,4.30
2019-02-23T07:51:32.398Z,4.30
2019-02-23T07:54:01.727Z,4.40
2019-02-23T07:56:30.607Z,4.40
2019-02-23T07:58:59.479Z,4.40
2019-02-23T08:01:28.362Z,4.50
2019-02-23T08:03:56.979Z,4.50
2019-02-23T08:06:25.553Z,4.60
2019-02-23T08:08:54.458Z,4.60
2019-02-23T08:11:23.001Z,4.70
2019-02-23T08:13:51.935Z,4.80
2019-02-23T08:16:21.130Z,4.70
2019-02-23T08:18:49.963Z,4.80
2019-02-23T08:21:18.906Z,4.80
2019-02-23T08:23:47.461Z,4.90
2019-02-23T08:26:16.046Z,5.00
2019-02-23T08:28:44.642Z,5.10
2019-02-23T08:31:13.600Z,5.20
2019-02-23T08:33:42.205Z,5.20
2019-02-23T08:36:11.136Z,5.20
2019-02-23T08:38:40.122Z,5.30
2019-02-23T08:41:08.986Z,5.40
2019-02-23T08:43:37.838Z,5.40
2019-02-23T08:46:07.738Z,5.40
2019-02-23T08:48:36.835Z,5.40
2019-02-23T08:51:05.707Z,5.50
2019-02-23T08:53:34.251Z,5.60
2019-02-23T08:56:02.843Z,5.70
2019-02-23T08:58:32.076Z,5.70
2019-02-23T09:01:00.652Z,5.80
2019-02-23T09:03:29.890Z,5.70
2019-02-23T09:05:58.673Z,5.70
2019-02-23T09:08:27.345Z,5.70
2019-02-23T09:10:56.526Z,5.80
2019-02-23T09:13:44.863Z,5.80
2019-02-23T09:16:32.707Z,5.80
2019-02-23T09:19:20.574Z,5.70
2019-02-23T09:22:08.656Z,5.90
2019-02-23T09:24:56.779Z,6.00
2019-02-23T09:27:44.859Z,6.20
2019-02-23T09:30:32.974Z,6.40
2019-02-23T09:33:21.046Z,6.50
2019-02-23T09:36:01.531Z,6.60
2019-02-23T09:38:42.062Z,6.60
2019-02-23T09:41:22.550Z,6.80
2019-02-23T09:44:03.353Z,7.10
2019-02-23T09:46:44.288Z,7.30
2019-02-23T09:49:25.726Z,7.50
2019-02-23T09:52:06.098Z,8.10
2019-02-23T09:54:46.591Z,8.40
2019-02-23T09:57:27.294Z,8.70
2019-02-23T10:00:07.871Z,8.80
2019-02-23T10:02:48.795Z,9.00
2019-02-23T10:13:43.523Z,9.60
2019-02-23T10:16:24.015Z,9.50
2019-02-23T10:21:46.890Z,9.80
2019-02-23T10:27:10.128Z,10.20
2019-02-23T10:32:36.630Z,10.50
2019-02-23T10:40:45.934Z,10.90
2019-02-23T10:51:47.710Z,10.80
2019-02-23T10:54:28.919Z,11.10
2019-02-23T11:11:08.020Z,11.30
2019-02-23T11:19:24.679Z,12.40
2019-02-23T11:22:03.658Z,12.60
2019-02-23T11:24:51.735Z,12.80
2019-02-23T11:27:39.883Z,13.10
2019-02-23T11:30:27.722Z,13.50
2019-02-23T11:33:15.839Z,13.40
2019-02-23T11:35:57.022Z,13.30
2019-02-23T11:38:37.511Z,13.60
2019-02-23T11:41:17.933Z,14.00
2019-02-23T11:43:58.941Z,14.30
2019-02-23T11:46:39.453Z,14.50
2019-02-23T11:49:20.046Z,14.70
2019-02-23T11:52:00.682Z,14.60
2019-02-23T11:54:41.263Z,14.70
2019-02-23T11:57:22.090Z,15.10
2019-02-23T12:00:03.338Z,15.10
2019-02-23T12:02:51.989Z,15.00
2019-02-23T12:05:26.341Z,14.70
2019-02-23T12:08:07.251Z,14.90
2019-02-23T12:10:48.081Z,15.00
2019-02-23T12:13:28.818Z,15.10
2019-02-23T12:16:09.506Z,14.80
2019-02-23T12:18:50.438Z,15.00
2019-02-23T12:21:30.977Z,14.90
2019-02-23T12:24:11.817Z,14.90
2019-02-23T12:26:52.419Z,15.00
2019-02-23T12:29:33.107Z,15.20
2019-02-23T12:32:14.283Z,15.20
2019-02-23T12:34:55.778Z,15.20
2019-02-23T12:37:36.111Z,15.00
2019-02-23T12:40:16.867Z,14.90
2019-02-23T12:42:57.944Z,14.40
2019-02-23T12:45:38.239Z,14.00
2019-02-23T12:48:19.023Z,13.60
2019-02-23T12:50:59.649Z,13.20
2019-02-23T12:53:40.147Z,13.40
2019-02-23T12:56:20.750Z,13.70
2019-02-23T12:59:01.051Z,13.60
2019-02-23T13:01:41.972Z,13.70
2019-02-23T13:04:22.991Z,13.80
2019-02-23T13:07:03.827Z,13.90
2019-02-23T13:09:45.264Z,13.90
2019-02-23T13:12:26.067Z,13.60
2019-02-23T13:15:06.651Z,13.50
2019-02-23T13:17:47.207Z,13.80
2019-02-23T13:20:28.171Z,14.20
2019-02-23T13:23:08.474Z,14.60
2019-02-23T13:25:49.368Z,14.80
2019-02-23T13:28:30.531Z,14.80
2019-02-23T13:31:10.802Z,14.80
2019-02-23T13:33:51.707Z,14.70
2019-02-23T13:36:33.047Z,14.50
2019-02-23T13:39:13.716Z,14.20
2019-02-23T13:41:54.495Z,13.60
2019-02-23T13:44:35.027Z,13.30
2019-02-23T13:47:15.863Z,13.30
2019-02-23T13:52:38.975Z,13.50
2019-02-23T13:55:19.907Z,13.80
2019-02-23T13:58:01.209Z,14.10
2019-02-23T14:00:41.423Z,14.50
2019-02-23T14:03:22.003Z,14.30
2019-02-23T14:06:02.815Z,13.90
2019-02-23T14:08:43.454Z,13.80
2019-02-23T14:11:24.442Z,13.80
2019-02-23T14:14:05.521Z,14.00
2019-02-23T14:16:46.922Z,14.10
2019-02-23T14:19:27.636Z,14.30
2019-02-23T14:24:54.871Z,14.80
2019-02-23T14:30:22.259Z,14.60
2019-02-23T14:35:48.828Z,14.40
2019-02-23T14:41:16.028Z,14.50
2019-02-23T14:43:59.853Z,14.60
2019-02-23T14:46:40.178Z,14.50
2019-02-23T15:12:06.211Z,12.00
2019-02-23T15:15:28.039Z,11.90
2019-02-23T15:18:31.427Z,11.70
2019-02-23T15:21:11.358Z,11.70
2019-02-23T15:24:21.457Z,11.70
2019-02-23T15:27:40.389Z,11.70
2019-02-23T15:30:37.781Z,11.70
2019-02-23T15:33:32.433Z,11.60
2019-02-23T15:36:33.287Z,11.50
2019-02-23T15:39:28.423Z,11.40
2019-02-23T15:42:45.164Z,11.30
2019-02-23T15:45:46.340Z,11.00
2019-02-23T15:48:41.844Z,10.80
2019-02-23T15:51:10.526Z,10.70
2019-02-23T15:53:39.426Z,10.60
2019-02-23T15:56:08.430Z,10.50
2019-02-23T15:58:37.291Z,10.40
2019-02-23T16:01:05.883Z,10.40
2019-02-23T16:03:34.849Z,10.40
2019-02-23T16:06:03.800Z,10.40
2019-02-23T16:08:32.659Z,10.40
2019-02-23T16:11:01.219Z,10.40
2019-02-23T16:13:29.828Z,10.30
2019-02-23T16:15:58.391Z,10.30
2019-02-23T16:18:27.312Z,10.30
2019-02-23T16:20:55.872Z,10.20
2019-02-23T16:23:35.016Z,10.20
2019-02-23T16:25:54.784Z,10.10
2019-02-23T16:28:24.326Z,10.10
2019-02-23T16:30:53.210Z,10.00
2019-02-23T16:33:21.784Z,10.00
2019-02-23T16:35:50.604Z,9.90
2019-02-23T16:38:19.129Z,9.80
2019-02-23T16:40:50.274Z,9.80
2019-02-23T16:43:18.046Z,9.80
2019-02-23T16:45:46.674Z,9.80
2019-02-23T16:48:15.215Z,9.70
2019-02-23T16:50:43.786Z,9.60
2019-02-23T16:53:12.378Z,9.50
2019-02-23T16:55:50.574Z,9.40
2019-02-23T16:58:11.626Z,9.30
2019-02-23T17:00:40.521Z,9.30
2019-02-23T17:03:09.414Z,9.20
2019-02-23T17:05:38.216Z,9.10
2019-02-23T17:08:08.794Z,9.00
2019-02-23T17:10:37.366Z,9.00
2019-02-23T17:13:06.214Z,8.90
2019-02-23T17:15:35.086Z,8.90
2019-02-23T17:18:03.646Z,8.80
2019-02-23T17:20:32.222Z,8.70
2019-02-23T17:23:02.251Z,8.60
2019-02-23T17:25:31.026Z,8.50
2019-02-23T17:27:59.999Z,8.50
2019-02-23T17:30:28.861Z,8.40
2019-02-23T17:32:58.366Z,8.30
2019-02-23T17:35:27.248Z,8.20
2019-02-23T17:37:56.111Z,8.20
2019-02-23T17:40:24.946Z,8.10
2019-02-23T17:42:53.754Z,8.10
2019-02-23T17:45:22.710Z,8.00
2019-02-23T17:47:51.716Z,8.00
2019-02-23T17:50:20.562Z,7.90
2019-02-23T17:52:49.190Z,7.90
2019-02-23T17:55:18.170Z,7.80
2019-02-23T17:57:46.742Z,7.80
2019-02-23T18:00:17.819Z,7.80
2019-02-23T18:02:46.701Z,7.80
2019-02-23T18:05:15.891Z,7.70
2019-02-23T18:07:44.482Z,7.70
2019-02-23T18:10:13.299Z,7.70
2019-02-23T18:12:42.154Z,7.60
2019-02-23T18:15:11.058Z,7.50
2019-02-23T18:17:39.582Z,7.40
2019-02-23T18:20:09.366Z,7.40
2019-02-23T18:22:37.983Z,7.40
2019-02-23T18:25:07.227Z,7.30
2019-02-23T18:27:36.054Z,7.30
2019-02-23T18:30:10.874Z,7.30
2019-02-23T18:32:35.635Z,7.30
2019-02-23T18:35:04.435Z,7.30
2019-02-23T18:37:33.074Z,7.20
2019-02-23T18:40:03.231Z,7.20
2019-02-23T18:42:32.119Z,7.20
2019-02-23T18:45:00.979Z,7.10
2019-02-23T18:47:29.554Z,7.10
2019-02-23T18:49:58.483Z,7.10
2019-02-23T18:52:27.582Z,7.10
2019-02-23T18:54:56.126Z,7.00
2019-02-23T18:57:24.747Z,7.00
2019-02-23T18:59:53.950Z,7.00
2019-02-23T19:02:22.508Z,6.90
2019-02-23T19:04:51.076Z,6.90
2019-02-23T19:07:19.694Z,6.80
2019-02-23T19:09:48.235Z,6.80
2019-02-23T19:12:17.588Z,6.80
2019-02-23T19:14:46.182Z,6.80
2019-02-23T19:17:14.718Z,6.70
2019-02-23T19:19:43.546Z,6.70
2019-02-23T19:22:12.335Z,6.70
2019-02-23T19:24:40.873Z,6.60
2019-02-23T19:27:09.469Z,6.60
2019-02-23T19:29:38.418Z,6.60
2019-02-23T19:32:07.378Z,6.60
2019-02-23T19:34:36.574Z,6.60
2019-02-23T19:37:05.134Z,6.60
2019-02-23T19:39:33.703Z,6.60
2019-02-23T19:42:02.301Z,6.50
2019-02-23T19:44:31.125Z,6.50
2019-02-23T19:47:10.595Z,6.50
2019-02-23T19:49:39.202Z,6.50
2019-02-23T19:52:08.034Z,6.40
2019-02-23T19:54:36.890Z,6.40
2019-02-23T19:57:05.487Z,6.40
2019-02-23T19:59:34.398Z,6.30
2019-02-23T20:02:02.947Z,6.30
2019-02-23T20:04:31.543Z,6.30
2019-02-23T20:07:00.455Z,6.30
2019-02-23T20:09:29.356Z,6.20
2019-02-23T20:11:57.899Z,6.20
2019-02-23T20:14:26.726Z,6.20
2019-02-23T20:16:55.263Z,6.20
2019-02-23T20:19:23.894Z,6.10
2019-02-23T20:21:53.803Z,6.10
2019-02-23T20:24:22.404Z,6.10
2019-02-23T20:26:55.616Z,6.10
2019-02-23T20:29:22.010Z,6.00
2019-02-23T20:31:51.587Z,6.00
2019-02-23T20:34:20.514Z,6.00
2019-02-23T20:36:49.368Z,5.90
2019-02-23T20:39:18.201Z,5.80
2019-02-23T20:41:47.701Z,5.80
2019-02-23T20:44:16.598Z,5.70
2019-02-23T20:46:45.991Z,5.70
2019-02-23T20:49:14.559Z,5.70
2019-02-23T20:51:43.562Z,5.70
2019-02-23T20:54:12.457Z,5.60
2019-02-23T20:56:41.359Z,5.60
2019-02-23T20:59:10.551Z,5.60
2019-02-23T21:01:39.093Z,5.50
2019-02-23T21:04:07.692Z,5.50
2019-02-23T21:06:36.548Z,5.50
2019-02-23T21:09:05.434Z,5.50
2019-02-23T21:11:34.062Z,5.40
2019-02-23T21:14:02.655Z,5.30
2019-02-23T21:16:50.494Z,5.30
2019-02-23T21:19:38.334Z,5.20
2019-02-23T21:22:26.628Z,5.20
2019-02-23T21:25:14.701Z,5.10
2019-02-23T21:28:02.534Z,5.10
2019-02-23T21:30:50.367Z,5.00
2019-02-23T21:33:38.202Z,4.90
2019-02-23T21:36:26.309Z,4.90
2019-02-23T21:39:14.150Z,4.90
2019-02-23T21:42:01.997Z,4.80
2019-02-23T21:44:50.075Z,4.80
2019-02-23T21:47:38.154Z,4.80
2019-02-23T21:50:26.128Z,4.80
2019-02-23T21:53:14.007Z,4.80
2019-02-23T21:56:02.133Z,4.80
2019-02-23T21:58:50.225Z,4.80
2019-02-23T22:01:38.087Z,4.80
2019-02-23T22:04:25.910Z,4.80
2019-02-23T22:07:13.785Z,4.80
2019-02-23T22:10:01.710Z,4.80
2019-02-23T22:12:49.847Z,4.70
2019-02-23T22:15:37.674Z,4.70
2019-02-23T22:21:18.022Z,4.70
2019-02-23T22:24:05.870Z,4.70
2019-02-23T22:26:53.957Z,4.60
2019-02-23T22:32:29.827Z,4.60
2019-02-23T22:38:08.431Z,4.60
2019-02-23T22:43:51.315Z,4.60
2019-02-23T22:46:39.706Z,4.60
2019-02-23T22:49:27.850Z,4.60
2019-02-23T22:52:15.694Z,4.60
2019-02-23T22:55:03.725Z,4.60
2019-02-23T22:57:45.047Z,4.60
2019-02-23T23:00:30.323Z,4.60
2019-02-23T23:03:11.251Z,4.50
2019-02-23T23:05:51.786Z,4.60
2019-02-23T23:08:32.238Z,4.60
2019-02-23T23:11:13.474Z,4.60
2019-02-23T23:13:54.323Z,4.60
2019-02-23T23:16:35.146Z,4.60
2019-02-23T23:19:14.098Z,4.60
2019-02-23T23:22:02.173Z,4.60
2019-02-23T23:24:50.254Z,4.60
2019-02-23T23:27:38.344Z,4.60
2019-02-23T23:30:26.474Z,4.60
2019-02-23T23:33:14.846Z,4.60
2019-02-23T23:36:02.987Z,4.60
2019-02-23T23:38:51.054Z,4.50
2019-02-23T23:41:39.174Z,4.50
2019-02-23T23:44:27.295Z,4.40
2019-02-23T23:47:15.459Z,4.40
2019-02-23T23:50:03.307Z,4.40
2019-02-23T23:52:51.436Z,4.40
2019-02-23T23:55:39.292Z,4.40
2019-02-23T23:58:27.354Z,4.40
